sensor_id;sensor_type;location;lat;lon;timestamp;P1;durP1;ratioP1;P2;durP2;ratioP2
53503;SDS011;39387;50.998;22.340;2023-02-08T00:02:00;25.60;;;9.02;;
53503;SDS011;39387;50.998;22.340;2023-02-08T00:04:29;24.25;;;9.15;;
53503;SDS011;39387;50.998;22.340;2023-02-08T00:06:57;22.92;;;9.07;;
53503;SDS011;39387;50.998;22.340;2023-02-08T00:09:24;23.77;;;9.52;;
53503;SDS011;39387;50.998;22.340;2023-02-08T00:11:51;22.65;;;9.13;;
53503;SDS011;39387;50.998;22.340;2023-02-08T00:14:19;20.55;;;8.80;;
53503;SDS011;39387;50.998;22.340;2023-02-08T00:16:46;24.42;;;9.77;;
53503;SDS011;39387;50.998;22.340;2023-02-08T00:19:14;21.27;;;8.50;;
53503;SDS011;39387;50.998;22.340;2023-02-08T00:21:42;21.63;;;8.95;;
53503;SDS011;39387;50.998;22.340;2023-02-08T00:24:10;20.25;;;8.07;;
53503;SDS011;39387;50.998;22.340;2023-02-08T00:26:37;22.40;;;9.05;;
53503;SDS011;39387;50.998;22.340;2023-02-08T00:29:05;16.25;;;7.10;;
53503;SDS011;39387;50.998;22.340;2023-02-08T00:31:32;17.95;;;8.05;;
53503;SDS011;39387;50.998;22.340;2023-02-08T00:34:00;22.88;;;9.18;;
53503;SDS011;39387;50.998;22.340;2023-02-08T00:36:27;17.90;;;7.70;;
53503;SDS011;39387;50.998;22.340;2023-02-08T00:38:56;18.20;;;8.63;;
53503;SDS011;39387;50.998;22.340;2023-02-08T00:41:23;20.00;;;8.07;;
53503;SDS011;39387;50.998;22.340;2023-02-08T00:43:51;14.00;;;6.43;;
53503;SDS011;39387;50.998;22.340;2023-02-08T00:46:18;15.00;;;6.82;;
53503;SDS011;39387;50.998;22.340;2023-02-08T00:48:46;13.98;;;6.93;;
53503;SDS011;39387;50.998;22.340;2023-02-08T00:51:14;16.98;;;6.95;;
53503;SDS011;39387;50.998;22.340;2023-02-08T00:53:42;16.35;;;6.95;;
53503;SDS011;39387;50.998;22.340;2023-02-08T00:56:12;16.00;;;7.30;;
53503;SDS011;39387;50.998;22.340;2023-02-08T00:58:41;16.63;;;6.82;;
53503;SDS011;39387;50.998;22.340;2023-02-08T01:01:09;19.33;;;8.20;;
53503;SDS011;39387;50.998;22.340;2023-02-08T01:03:37;17.80;;;8.23;;
53503;SDS011;39387;50.998;22.340;2023-02-08T01:06:06;17.92;;;7.63;;
53503;SDS011;39387;50.998;22.340;2023-02-08T01:08:35;18.63;;;7.45;;
53503;SDS011;39387;50.998;22.340;2023-02-08T01:11:04;18.35;;;7.97;;
53503;SDS011;39387;50.998;22.340;2023-02-08T01:13:34;15.30;;;5.90;;
53503;SDS011;39387;50.998;22.340;2023-02-08T01:16:06;18.15;;;6.97;;
53503;SDS011;39387;50.998;22.340;2023-02-08T01:18:35;22.98;;;7.60;;
53503;SDS011;39387;50.998;22.340;2023-02-08T01:21:03;18.00;;;6.97;;
53503;SDS011;39387;50.998;22.340;2023-02-08T01:23:32;16.92;;;6.95;;
53503;SDS011;39387;50.998;22.340;2023-02-08T01:25:59;15.40;;;6.97;;
53503;SDS011;39387;50.998;22.340;2023-02-08T01:28:27;23.33;;;8.25;;
53503;SDS011;39387;50.998;22.340;2023-02-08T01:30:55;16.52;;;7.05;;
53503;SDS011;39387;50.998;22.340;2023-02-08T01:33:23;17.38;;;6.95;;
53503;SDS011;39387;50.998;22.340;2023-02-08T01:35:50;19.27;;;7.47;;
53503;SDS011;39387;50.998;22.340;2023-02-08T01:38:18;19.50;;;7.72;;
53503;SDS011;39387;50.998;22.340;2023-02-08T01:40:46;17.52;;;8.48;;
53503;SDS011;39387;50.998;22.340;2023-02-08T01:43:18;19.02;;;7.60;;
53503;SDS011;39387;50.998;22.340;2023-02-08T01:45:47;17.73;;;7.75;;
53503;SDS011;39387;50.998;22.340;2023-02-08T01:48:17;16.75;;;6.80;;
53503;SDS011;39387;50.998;22.340;2023-02-08T01:50:48;20.88;;;8.13;;
53503;SDS011;39387;50.998;22.340;2023-02-08T01:53:18;21.15;;;8.38;;
53503;SDS011;39387;50.998;22.340;2023-02-08T01:55:46;19.88;;;9.02;;
53503;SDS011;39387;50.998;22.340;2023-02-08T01:58:15;19.25;;;7.53;;
53503;SDS011;39387;50.998;22.340;2023-02-08T02:00:44;17.35;;;8.10;;
53503;SDS011;39387;50.998;22.340;2023-02-08T02:03:12;15.55;;;7.13;;
53503;SDS011;39387;50.998;22.340;2023-02-08T02:05:43;18.70;;;7.80;;
53503;SDS011;39387;50.998;22.340;2023-02-08T02:08:11;19.27;;;6.70;;
53503;SDS011;39387;50.998;22.340;2023-02-08T02:10:39;14.23;;;7.57;;
53503;SDS011;39387;50.998;22.340;2023-02-08T02:13:09;19.45;;;8.25;;
53503;SDS011;39387;50.998;22.340;2023-02-08T02:15:38;18.85;;;8.13;;
53503;SDS011;39387;50.998;22.340;2023-02-08T02:18:06;20.42;;;7.78;;
53503;SDS011;39387;50.998;22.340;2023-02-08T02:30:10;19.63;;;7.75;;
53503;SDS011;39387;50.998;22.340;2023-02-08T02:33:17;20.55;;;8.23;;
53503;SDS011;39387;50.998;22.340;2023-02-08T02:35:55;25.77;;;8.13;;
53503;SDS011;39387;50.998;22.340;2023-02-08T02:38:28;20.90;;;6.72;;
53503;SDS011;39387;50.998;22.340;2023-02-08T02:41:05;16.45;;;7.68;;
53503;SDS011;39387;50.998;22.340;2023-02-08T02:43:38;16.20;;;7.15;;
53503;SDS011;39387;50.998;22.340;2023-02-08T02:46:14;19.05;;;8.25;;
53503;SDS011;39387;50.998;22.340;2023-02-08T02:48:49;17.50;;;7.53;;
53503;SDS011;39387;50.998;22.340;2023-02-08T02:51:21;16.92;;;6.60;;
53503;SDS011;39387;50.998;22.340;2023-02-08T02:53:53;17.15;;;6.70;;
53503;SDS011;39387;50.998;22.340;2023-02-08T02:58:53;17.55;;;6.75;;
53503;SDS011;39387;50.998;22.340;2023-02-08T03:01:23;19.57;;;7.43;;
53503;SDS011;39387;50.998;22.340;2023-02-08T03:03:53;21.58;;;7.15;;
53503;SDS011;39387;50.998;22.340;2023-02-08T03:06:23;17.65;;;7.28;;
53503;SDS011;39387;50.998;22.340;2023-02-08T03:08:59;18.00;;;7.00;;
53503;SDS011;39387;50.998;22.340;2023-02-08T03:11:38;17.13;;;8.02;;
53503;SDS011;39387;50.998;22.340;2023-02-08T03:14:19;20.70;;;7.90;;
53503;SDS011;39387;50.998;22.340;2023-02-08T03:17:01;17.85;;;7.28;;
53503;SDS011;39387;50.998;22.340;2023-02-08T03:19:35;18.65;;;7.57;;
53503;SDS011;39387;50.998;22.340;2023-02-08T03:22:08;23.25;;;8.05;;
53503;SDS011;39387;50.998;22.340;2023-02-08T03:24:41;18.38;;;7.47;;
53503;SDS011;39387;50.998;22.340;2023-02-08T03:27:14;15.98;;;7.68;;
53503;SDS011;39387;50.998;22.340;2023-02-08T03:29:50;15.95;;;6.70;;
53503;SDS011;39387;50.998;22.340;2023-02-08T03:32:22;14.70;;;6.15;;
53503;SDS011;39387;50.998;22.340;2023-02-08T03:37:22;18.42;;;6.32;;
53503;SDS011;39387;50.998;22.340;2023-02-08T03:39:52;12.10;;;5.95;;
53503;SDS011;39387;50.998;22.340;2023-02-08T03:42:24;14.73;;;5.72;;
53503;SDS011;39387;50.998;22.340;2023-02-08T03:44:53;16.17;;;6.13;;
53503;SDS011;39387;50.998;22.340;2023-02-08T03:47:24;12.10;;;5.68;;
53503;SDS011;39387;50.998;22.340;2023-02-08T03:49:56;17.52;;;6.70;;
53503;SDS011;39387;50.998;22.340;2023-02-08T03:52:25;14.80;;;6.55;;
53503;SDS011;39387;50.998;22.340;2023-02-08T03:54:54;17.40;;;6.55;;
53503;SDS011;39387;50.998;22.340;2023-02-08T03:57:23;18.30;;;6.85;;
53503;SDS011;39387;50.998;22.340;2023-02-08T03:59:53;13.90;;;5.85;;
53503;SDS011;39387;50.998;22.340;2023-02-08T04:02:24;17.38;;;6.65;;
53503;SDS011;39387;50.998;22.340;2023-02-08T04:04:54;17.85;;;6.03;;
53503;SDS011;39387;50.998;22.340;2023-02-08T04:07:23;12.88;;;4.80;;
53503;SDS011;39387;50.998;22.340;2023-02-08T04:09:50;11.90;;;5.65;;
53503;SDS011;39387;50.998;22.340;2023-02-08T04:12:17;15.52;;;6.35;;
53503;SDS011;39387;50.998;22.340;2023-02-08T04:14:45;16.27;;;6.10;;
53503;SDS011;39387;50.998;22.340;2023-02-08T04:17:12;12.43;;;5.28;;
53503;SDS011;39387;50.998;22.340;2023-02-08T04:19:39;11.73;;;4.95;;
53503;SDS011;39387;50.998;22.340;2023-02-08T04:22:08;15.25;;;6.38;;
53503;SDS011;39387;50.998;22.340;2023-02-08T04:24:35;12.73;;;5.63;;
53503;SDS011;39387;50.998;22.340;2023-02-08T04:27:03;14.55;;;5.95;;
53503;SDS011;39387;50.998;22.340;2023-02-08T04:29:30;14.25;;;6.10;;
53503;SDS011;39387;50.998;22.340;2023-02-08T04:31:58;13.43;;;6.07;;
53503;SDS011;39387;50.998;22.340;2023-02-08T04:34:25;16.02;;;6.20;;
53503;SDS011;39387;50.998;22.340;2023-02-08T04:36:53;15.20;;;5.57;;
53503;SDS011;39387;50.998;22.340;2023-02-08T04:39:21;14.43;;;5.10;;
53503;SDS011;39387;50.998;22.340;2023-02-08T04:41:49;12.48;;;5.55;;
53503;SDS011;39387;50.998;22.340;2023-02-08T04:44:16;13.88;;;6.13;;
53503;SDS011;39387;50.998;22.340;2023-02-08T04:46:43;15.30;;;6.63;;
53503;SDS011;39387;50.998;22.340;2023-02-08T04:49:13;13.93;;;5.38;;
53503;SDS011;39387;50.998;22.340;2023-02-08T04:51:40;11.77;;;5.15;;
53503;SDS011;39387;50.998;22.340;2023-02-08T04:54:08;11.50;;;5.55;;
53503;SDS011;39387;50.998;22.340;2023-02-08T04:56:37;14.43;;;6.53;;
53503;SDS011;39387;50.998;22.340;2023-02-08T04:59:04;12.68;;;5.40;;
53503;SDS011;39387;50.998;22.340;2023-02-08T05:01:31;12.98;;;5.25;;
53503;SDS011;39387;50.998;22.340;2023-02-08T05:03:59;14.27;;;6.05;;
53503;SDS011;39387;50.998;22.340;2023-02-08T05:06:26;15.27;;;6.13;;
53503;SDS011;39387;50.998;22.340;2023-02-08T05:08:53;12.35;;;5.63;;
53503;SDS011;39387;50.998;22.340;2023-02-08T05:11:21;12.52;;;6.10;;
53503;SDS011;39387;50.998;22.340;2023-02-08T05:13:51;14.95;;;6.15;;
53503;SDS011;39387;50.998;22.340;2023-02-08T05:16:19;11.00;;;5.47;;
53503;SDS011;39387;50.998;22.340;2023-02-08T05:18:46;12.05;;;4.47;;
53503;SDS011;39387;50.998;22.340;2023-02-08T05:21:13;12.75;;;5.45;;
53503;SDS011;39387;50.998;22.340;2023-02-08T05:23:40;11.40;;;5.20;;
53503;SDS011;39387;50.998;22.340;2023-02-08T05:26:08;13.07;;;5.35;;
53503;SDS011;39387;50.998;22.340;2023-02-08T05:28:36;10.48;;;5.82;;
53503;SDS011;39387;50.998;22.340;2023-02-08T05:31:10;12.13;;;5.97;;
53503;SDS011;39387;50.998;22.340;2023-02-08T05:33:39;11.07;;;5.35;;
53503;SDS011;39387;50.998;22.340;2023-02-08T05:36:07;12.43;;;5.25;;
53503;SDS011;39387;50.998;22.340;2023-02-08T05:38:34;10.32;;;4.70;;
53503;SDS011;39387;50.998;22.340;2023-02-08T05:41:02;14.52;;;5.65;;
53503;SDS011;39387;50.998;22.340;2023-02-08T05:43:30;9.10;;;4.95;;
53503;SDS011;39387;50.998;22.340;2023-02-08T05:45:57;10.90;;;4.53;;
53503;SDS011;39387;50.998;22.340;2023-02-08T05:48:26;10.35;;;4.72;;
53503;SDS011;39387;50.998;22.340;2023-02-08T05:50:54;12.35;;;6.22;;
53503;SDS011;39387;50.998;22.340;2023-02-08T05:53:21;11.48;;;5.05;;
53503;SDS011;39387;50.998;22.340;2023-02-08T05:55:49;10.65;;;4.50;;
53503;SDS011;39387;50.998;22.340;2023-02-08T05:58:16;8.55;;;4.50;;
53503;SDS011;39387;50.998;22.340;2023-02-08T06:00:43;7.50;;;3.78;;
53503;SDS011;39387;50.998;22.340;2023-02-08T06:03:11;9.77;;;4.65;;
53503;SDS011;39387;50.998;22.340;2023-02-08T06:05:40;13.52;;;5.00;;
53503;SDS011;39387;50.998;22.340;2023-02-08T06:08:08;9.15;;;3.67;;
53503;SDS011;39387;50.998;22.340;2023-02-08T06:10:36;7.10;;;3.80;;
53503;SDS011;39387;50.998;22.340;2023-02-08T06:13:03;10.55;;;5.13;;
53503;SDS011;39387;50.998;22.340;2023-02-08T06:15:31;7.88;;;3.85;;
53503;SDS011;39387;50.998;22.340;2023-02-08T06:17:58;5.90;;;3.75;;
53503;SDS011;39387;50.998;22.340;2023-02-08T06:20:25;10.43;;;4.85;;
53503;SDS011;39387;50.998;22.340;2023-02-08T06:22:55;11.43;;;5.20;;
53503;SDS011;39387;50.998;22.340;2023-02-08T06:25:22;10.40;;;4.82;;
53503;SDS011;39387;50.998;22.340;2023-02-08T06:27:49;10.80;;;5.03;;
53503;SDS011;39387;50.998;22.340;2023-02-08T06:30:17;9.43;;;4.63;;
53503;SDS011;39387;50.998;22.340;2023-02-08T06:32:44;11.15;;;5.00;;
53503;SDS011;39387;50.998;22.340;2023-02-08T06:35:12;11.25;;;4.60;;
53503;SDS011;39387;50.998;22.340;2023-02-08T06:37:40;10.63;;;4.78;;
53503;SDS011;39387;50.998;22.340;2023-02-08T06:40:09;8.52;;;4.53;;
53503;SDS011;39387;50.998;22.340;2023-02-08T06:42:36;11.57;;;4.75;;
53503;SDS011;39387;50.998;22.340;2023-02-08T06:45:04;10.70;;;5.00;;
53503;SDS011;39387;50.998;22.340;2023-02-08T06:47:34;10.80;;;4.28;;
53503;SDS011;39387;50.998;22.340;2023-02-08T06:50:01;7.07;;;4.07;;
53503;SDS011;39387;50.998;22.340;2023-02-08T06:52:29;7.85;;;4.57;;
53503;SDS011;39387;50.998;22.340;2023-02-08T06:54:56;11.00;;;4.30;;
53503;SDS011;39387;50.998;22.340;2023-02-08T06:57:25;8.25;;;4.05;;
53503;SDS011;39387;50.998;22.340;2023-02-08T06:59:52;10.10;;;4.57;;
53503;SDS011;39387;50.998;22.340;2023-02-08T07:02:20;9.38;;;3.97;;
53503;SDS011;39387;50.998;22.340;2023-02-08T07:04:47;8.57;;;4.38;;
53503;SDS011;39387;50.998;22.340;2023-02-08T07:07:15;10.35;;;4.65;;
53503;SDS011;39387;50.998;22.340;2023-02-08T07:09:43;11.18;;;4.53;;
53503;SDS011;39387;50.998;22.340;2023-02-08T07:12:11;10.02;;;5.13;;
53503;SDS011;39387;50.998;22.340;2023-02-08T07:14:40;10.68;;;4.88;;
53503;SDS011;39387;50.998;22.340;2023-02-08T07:17:08;9.13;;;4.83;;
53503;SDS011;39387;50.998;22.340;2023-02-08T07:19:36;11.27;;;4.93;;
53503;SDS011;39387;50.998;22.340;2023-02-08T07:22:04;11.73;;;5.70;;
53503;SDS011;39387;50.998;22.340;2023-02-08T07:24:33;12.98;;;6.80;;
53503;SDS011;39387;50.998;22.340;2023-02-08T07:27:02;14.63;;;7.13;;
53503;SDS011;39387;50.998;22.340;2023-02-08T07:29:29;14.65;;;6.82;;
53503;SDS011;39387;50.998;22.340;2023-02-08T07:31:58;14.75;;;6.82;;
53503;SDS011;39387;50.998;22.340;2023-02-08T07:34:27;9.27;;;4.90;;
53503;SDS011;39387;50.998;22.340;2023-02-08T07:36:55;9.32;;;4.80;;
53503;SDS011;39387;50.998;22.340;2023-02-08T07:39:23;10.80;;;4.18;;
53503;SDS011;39387;50.998;22.340;2023-02-08T07:41:51;11.63;;;4.88;;
53503;SDS011;39387;50.998;22.340;2023-02-08T07:44:19;15.20;;;6.07;;
53503;SDS011;39387;50.998;22.340;2023-02-08T07:46:47;11.27;;;5.65;;
53503;SDS011;39387;50.998;22.340;2023-02-08T07:49:16;10.00;;;4.75;;
53503;SDS011;39387;50.998;22.340;2023-02-08T07:51:44;9.02;;;4.75;;
53503;SDS011;39387;50.998;22.340;2023-02-08T07:54:11;10.77;;;5.38;;
53503;SDS011;39387;50.998;22.340;2023-02-08T07:56:39;10.50;;;5.00;;
53503;SDS011;39387;50.998;22.340;2023-02-08T07:59:06;9.70;;;4.95;;
53503;SDS011;39387;50.998;22.340;2023-02-08T08:01:34;11.52;;;5.75;;
53503;SDS011;39387;50.998;22.340;2023-02-08T08:04:01;9.30;;;5.28;;
53503;SDS011;39387;50.998;22.340;2023-02-08T08:06:31;9.60;;;4.85;;
53503;SDS011;39387;50.998;22.340;2023-02-08T08:08:58;9.32;;;5.15;;
53503;SDS011;39387;50.998;22.340;2023-02-08T08:11:26;11.05;;;4.70;;
53503;SDS011;39387;50.998;22.340;2023-02-08T08:13:54;10.68;;;5.75;;
53503;SDS011;39387;50.998;22.340;2023-02-08T08:16:21;12.18;;;5.15;;
53503;SDS011;39387;50.998;22.340;2023-02-08T08:18:48;10.95;;;4.90;;
53503;SDS011;39387;50.998;22.340;2023-02-08T08:21:16;10.20;;;4.97;;
53503;SDS011;39387;50.998;22.340;2023-02-08T08:23:45;10.15;;;4.65;;
53503;SDS011;39387;50.998;22.340;2023-02-08T08:26:14;7.65;;;4.15;;
53503;SDS011;39387;50.998;22.340;2023-02-08T08:28:42;7.15;;;4.28;;
53503;SDS011;39387;50.998;22.340;2023-02-08T08:31:12;8.32;;;4.10;;
53503;SDS011;39387;50.998;22.340;2023-02-08T08:33:40;10.85;;;4.88;;
53503;SDS011;39387;50.998;22.340;2023-02-08T08:36:08;7.47;;;4.20;;
53503;SDS011;39387;50.998;22.340;2023-02-08T08:38:36;9.48;;;4.80;;
53503;SDS011;39387;50.998;22.340;2023-02-08T08:41:07;8.38;;;4.18;;
53503;SDS011;39387;50.998;22.340;2023-02-08T08:43:35;8.48;;;4.45;;
53503;SDS011;39387;50.998;22.340;2023-02-08T08:46:03;7.63;;;4.15;;
53503;SDS011;39387;50.998;22.340;2023-02-08T08:48:31;7.72;;;3.95;;
53503;SDS011;39387;50.998;22.340;2023-02-08T08:50:59;7.00;;;3.83;;
53503;SDS011;39387;50.998;22.340;2023-02-08T08:53:26;7.38;;;3.85;;
53503;SDS011;39387;50.998;22.340;2023-02-08T08:55:54;7.90;;;4.63;;
53503;SDS011;39387;50.998;22.340;2023-02-08T08:58:22;8.35;;;4.35;;
53503;SDS011;39387;50.998;22.340;2023-02-08T09:00:50;10.48;;;5.22;;
53503;SDS011;39387;50.998;22.340;2023-02-08T09:03:18;12.75;;;5.32;;
53503;SDS011;39387;50.998;22.340;2023-02-08T09:05:45;10.35;;;5.40;;
53503;SDS011;39387;50.998;22.340;2023-02-08T09:08:13;11.85;;;4.78;;
53503;SDS011;39387;50.998;22.340;2023-02-08T09:10:40;10.48;;;4.90;;
53503;SDS011;39387;50.998;22.340;2023-02-08T09:13:08;10.25;;;5.85;;
53503;SDS011;39387;50.998;22.340;2023-02-08T09:15:38;10.75;;;6.18;;
53503;SDS011;39387;50.998;22.340;2023-02-08T09:18:06;13.70;;;7.15;;
53503;SDS011;39387;50.998;22.340;2023-02-08T09:20:36;14.93;;;7.18;;
53503;SDS011;39387;50.998;22.340;2023-02-08T09:23:03;10.38;;;5.45;;
53503;SDS011;39387;50.998;22.340;2023-02-08T09:25:31;12.38;;;5.88;;
53503;SDS011;39387;50.998;22.340;2023-02-08T09:27:58;8.95;;;4.78;;
53503;SDS011;39387;50.998;22.340;2023-02-08T09:30:25;15.07;;;7.65;;
53503;SDS011;39387;50.998;22.340;2023-02-08T09:32:54;14.80;;;6.60;;
53503;SDS011;39387;50.998;22.340;2023-02-08T09:35:22;13.63;;;6.20;;
53503;SDS011;39387;50.998;22.340;2023-02-08T09:37:51;12.63;;;6.60;;
53503;SDS011;39387;50.998;22.340;2023-02-08T09:40:20;12.13;;;5.88;;
53503;SDS011;39387;50.998;22.340;2023-02-08T09:42:51;13.55;;;6.22;;
53503;SDS011;39387;50.998;22.340;2023-02-08T09:45:25;13.32;;;6.88;;
53503;SDS011;39387;50.998;22.340;2023-02-08T09:47:58;13.38;;;6.70;;
53503;SDS011;39387;50.998;22.340;2023-02-08T09:50:31;13.30;;;6.43;;
53503;SDS011;39387;50.998;22.340;2023-02-08T09:53:01;13.23;;;6.32;;
53503;SDS011;39387;50.998;22.340;2023-02-08T09:55:33;12.98;;;6.47;;
53503;SDS011;39387;50.998;22.340;2023-02-08T09:58:04;12.10;;;6.30;;
53503;SDS011;39387;50.998;22.340;2023-02-08T10:00:40;13.43;;;6.57;;
53503;SDS011;39387;50.998;22.340;2023-02-08T10:03:11;12.57;;;7.07;;
53503;SDS011;39387;50.998;22.340;2023-02-08T10:05:48;12.43;;;6.17;;
53503;SDS011;39387;50.998;22.340;2023-02-08T10:08:15;11.98;;;6.65;;
53503;SDS011;39387;50.998;22.340;2023-02-08T10:10:48;13.88;;;6.43;;
53503;SDS011;39387;50.998;22.340;2023-02-08T10:13:23;13.93;;;6.53;;
53503;SDS011;39387;50.998;22.340;2023-02-08T10:16:04;11.57;;;6.32;;
53503;SDS011;39387;50.998;22.340;2023-02-08T10:18:40;14.80;;;6.72;;
53503;SDS011;39387;50.998;22.340;2023-02-08T10:21:17;13.25;;;6.88;;
53503;SDS011;39387;50.998;22.340;2023-02-08T10:23:58;9.65;;;6.25;;
53503;SDS011;39387;50.998;22.340;2023-02-08T10:26:35;11.38;;;5.70;;
53503;SDS011;39387;50.998;22.340;2023-02-08T10:29:14;11.23;;;5.40;;
53503;SDS011;39387;50.998;22.340;2023-02-08T10:31:54;9.60;;;5.07;;
53503;SDS011;39387;50.998;22.340;2023-02-08T10:34:37;9.20;;;4.90;;
53503;SDS011;39387;50.998;22.340;2023-02-08T10:37:10;9.25;;;4.70;;
53503;SDS011;39387;50.998;22.340;2023-02-08T10:39:39;9.70;;;5.63;;
53503;SDS011;39387;50.998;22.340;2023-02-08T10:42:09;8.98;;;4.40;;
53503;SDS011;39387;50.998;22.340;2023-02-08T10:44:42;9.65;;;4.90;;
53503;SDS011;39387;50.998;22.340;2023-02-08T10:47:18;9.02;;;4.82;;
53503;SDS011;39387;50.998;22.340;2023-02-08T10:49:51;11.02;;;5.93;;
53503;SDS011;39387;50.998;22.340;2023-02-08T10:52:21;8.57;;;4.90;;
53503;SDS011;39387;50.998;22.340;2023-02-08T10:54:48;9.07;;;5.47;;
53503;SDS011;39387;50.998;22.340;2023-02-08T10:57:16;8.95;;;5.40;;
53503;SDS011;39387;50.998;22.340;2023-02-08T10:59:45;13.77;;;5.47;;
53503;SDS011;39387;50.998;22.340;2023-02-08T11:02:19;11.32;;;5.45;;
53503;SDS011;39387;50.998;22.340;2023-02-08T11:04:57;9.35;;;4.85;;
53503;SDS011;39387;50.998;22.340;2023-02-08T11:07:26;8.20;;;4.40;;
53503;SDS011;39387;50.998;22.340;2023-02-08T11:09:53;11.25;;;4.85;;
53503;SDS011;39387;50.998;22.340;2023-02-08T11:12:51;5.63;;;3.90;;
53503;SDS011;39387;50.998;22.340;2023-02-08T11:15:20;7.35;;;4.45;;
53503;SDS011;39387;50.998;22.340;2023-02-08T11:17:53;9.48;;;3.97;;
53503;SDS011;39387;50.998;22.340;2023-02-08T11:20:25;8.82;;;4.40;;
53503;SDS011;39387;50.998;22.340;2023-02-08T11:22:56;7.18;;;4.13;;
53503;SDS011;39387;50.998;22.340;2023-02-08T11:25:31;8.00;;;4.40;;
53503;SDS011;39387;50.998;22.340;2023-02-08T11:28:00;29.83;;;13.60;;
53503;SDS011;39387;50.998;22.340;2023-02-08T11:30:28;15.43;;;7.82;;
53503;SDS011;39387;50.998;22.340;2023-02-08T11:33:13;8.13;;;4.60;;
53503;SDS011;39387;50.998;22.340;2023-02-08T11:35:59;8.25;;;3.97;;
53503;SDS011;39387;50.998;22.340;2023-02-08T11:38:29;8.40;;;3.92;;
53503;SDS011;39387;50.998;22.340;2023-02-08T11:40:59;6.45;;;3.25;;
53503;SDS011;39387;50.998;22.340;2023-02-08T11:43:30;7.82;;;3.78;;
53503;SDS011;39387;50.998;22.340;2023-02-08T11:45:59;6.55;;;3.90;;
53503;SDS011;39387;50.998;22.340;2023-02-08T11:48:31;11.20;;;4.47;;
53503;SDS011;39387;50.998;22.340;2023-02-08T11:51:11;9.18;;;4.68;;
53503;SDS011;39387;50.998;22.340;2023-02-08T11:53:41;7.03;;;3.85;;
53503;SDS011;39387;50.998;22.340;2023-02-08T11:56:17;7.82;;;4.57;;
53503;SDS011;39387;50.998;22.340;2023-02-08T12:01:43;9.07;;;3.83;;
53503;SDS011;39387;50.998;22.340;2023-02-08T12:04:11;7.50;;;4.00;;
53503;SDS011;39387;50.998;22.340;2023-02-08T12:06:58;6.40;;;3.63;;
53503;SDS011;39387;50.998;22.340;2023-02-08T12:09:43;8.23;;;4.32;;
53503;SDS011;39387;50.998;22.340;2023-02-08T12:12:33;6.95;;;4.28;;
53503;SDS011;39387;50.998;22.340;2023-02-08T12:15:10;9.48;;;4.63;;
53503;SDS011;39387;50.998;22.340;2023-02-08T12:17:50;8.23;;;4.13;;
53503;SDS011;39387;50.998;22.340;2023-02-08T12:20:38;7.93;;;4.43;;
53503;SDS011;39387;50.998;22.340;2023-02-08T12:23:18;11.93;;;5.20;;
53503;SDS011;39387;50.998;22.340;2023-02-08T12:26:04;8.40;;;5.15;;
53503;SDS011;39387;50.998;22.340;2023-02-08T12:28:43;10.25;;;5.50;;
53503;SDS011;39387;50.998;22.340;2023-02-08T12:33:50;12.45;;;5.55;;
53503;SDS011;39387;50.998;22.340;2023-02-08T12:36:24;8.70;;;4.55;;
53503;SDS011;39387;50.998;22.340;2023-02-08T12:39:00;9.43;;;5.05;;
53503;SDS011;39387;50.998;22.340;2023-02-08T12:41:53;9.57;;;5.00;;
53503;SDS011;39387;50.998;22.340;2023-02-08T12:44:34;29.02;;;12.85;;
53503;SDS011;39387;50.998;22.340;2023-02-08T12:47:08;11.48;;;5.85;;
53503;SDS011;39387;50.998;22.340;2023-02-08T12:49:51;14.63;;;6.00;;
53503;SDS011;39387;50.998;22.340;2023-02-08T12:52:25;11.45;;;5.45;;
53503;SDS011;39387;50.998;22.340;2023-02-08T12:54:59;11.88;;;5.78;;
53503;SDS011;39387;50.998;22.340;2023-02-08T12:57:29;12.82;;;6.55;;
53503;SDS011;39387;50.998;22.340;2023-02-08T12:59:58;11.63;;;6.13;;
53503;SDS011;39387;50.998;22.340;2023-02-08T13:02:29;15.43;;;6.78;;
53503;SDS011;39387;50.998;22.340;2023-02-08T13:04:59;11.40;;;6.07;;
53503;SDS011;39387;50.998;22.340;2023-02-08T13:07:30;12.57;;;6.07;;
53503;SDS011;39387;50.998;22.340;2023-02-08T13:10:02;13.93;;;6.50;;
53503;SDS011;39387;50.998;22.340;2023-02-08T13:12:33;15.05;;;6.88;;
53503;SDS011;39387;50.998;22.340;2023-02-08T13:15:04;14.98;;;6.72;;
53503;SDS011;39387;50.998;22.340;2023-02-08T13:17:37;13.48;;;6.45;;
53503;SDS011;39387;50.998;22.340;2023-02-08T13:20:14;14.15;;;6.55;;
53503;SDS011;39387;50.998;22.340;2023-02-08T13:22:48;14.13;;;6.77;;
53503;SDS011;39387;50.998;22.340;2023-02-08T13:25:20;13.60;;;6.82;;
53503;SDS011;39387;50.998;22.340;2023-02-08T13:27:50;16.48;;;7.97;;
53503;SDS011;39387;50.998;22.340;2023-02-08T13:30:18;14.27;;;7.30;;
53503;SDS011;39387;50.998;22.340;2023-02-08T13:32:47;17.65;;;8.45;;
53503;SDS011;39387;50.998;22.340;2023-02-08T13:35:16;16.35;;;7.78;;
53503;SDS011;39387;50.998;22.340;2023-02-08T13:37:48;17.20;;;7.60;;
53503;SDS011;39387;50.998;22.340;2023-02-08T13:40:17;16.93;;;8.67;;
53503;SDS011;39387;50.998;22.340;2023-02-08T13:42:54;16.75;;;7.25;;
53503;SDS011;39387;50.998;22.340;2023-02-08T13:45:25;13.85;;;7.45;;
53503;SDS011;39387;50.998;22.340;2023-02-08T13:47:56;16.40;;;7.30;;
53503;SDS011;39387;50.998;22.340;2023-02-08T13:50:42;19.05;;;8.15;;
53503;SDS011;39387;50.998;22.340;2023-02-08T13:53:12;12.27;;;7.07;;
53503;SDS011;39387;50.998;22.340;2023-02-08T13:55:51;17.65;;;8.57;;
53503;SDS011;39387;50.998;22.340;2023-02-08T13:58:25;20.13;;;8.55;;
53503;SDS011;39387;50.998;22.340;2023-02-08T14:01:13;16.80;;;7.75;;
53503;SDS011;39387;50.998;22.340;2023-02-08T14:03:42;16.10;;;8.30;;
53503;SDS011;39387;50.998;22.340;2023-02-08T14:06:15;18.02;;;7.90;;
53503;SDS011;39387;50.998;22.340;2023-02-08T14:08:46;16.65;;;7.32;;
53503;SDS011;39387;50.998;22.340;2023-02-08T14:11:27;17.65;;;7.32;;
53503;SDS011;39387;50.998;22.340;2023-02-08T14:14:02;19.02;;;8.63;;
53503;SDS011;39387;50.998;22.340;2023-02-08T14:16:31;18.27;;;9.07;;
53503;SDS011;39387;50.998;22.340;2023-02-08T14:19:01;17.48;;;8.30;;
53503;SDS011;39387;50.998;22.340;2023-02-08T14:21:33;16.20;;;8.50;;
53503;SDS011;39387;50.998;22.340;2023-02-08T14:24:04;19.13;;;9.10;;
53503;SDS011;39387;50.998;22.340;2023-02-08T14:26:35;17.83;;;8.93;;
53503;SDS011;39387;50.998;22.340;2023-02-08T14:29:04;20.63;;;8.68;;
53503;SDS011;39387;50.998;22.340;2023-02-08T14:31:36;20.45;;;8.95;;
53503;SDS011;39387;50.998;22.340;2023-02-08T14:34:05;20.88;;;10.02;;
53503;SDS011;39387;50.998;22.340;2023-02-08T14:36:46;25.25;;;10.98;;
53503;SDS011;39387;50.998;22.340;2023-02-08T14:39:26;24.42;;;12.02;;
53503;SDS011;39387;50.998;22.340;2023-02-08T14:41:56;27.67;;;14.02;;
53503;SDS011;39387;50.998;22.340;2023-02-08T14:50:49;24.15;;;10.23;;
53503;SDS011;39387;50.998;22.340;2023-02-08T14:53:24;24.88;;;10.70;;
53503;SDS011;39387;50.998;22.340;2023-02-08T14:55:58;23.75;;;10.93;;
53503;SDS011;39387;50.998;22.340;2023-02-08T14:58:31;24.98;;;10.75;;
53503;SDS011;39387;50.998;22.340;2023-02-08T15:00:59;25.25;;;10.02;;
53503;SDS011;39387;50.998;22.340;2023-02-08T15:03:29;21.83;;;9.90;;
53503;SDS011;39387;50.998;22.340;2023-02-08T15:06:06;22.95;;;9.27;;
53503;SDS011;39387;50.998;22.340;2023-02-08T15:08:47;22.98;;;10.05;;
53503;SDS011;39387;50.998;22.340;2023-02-08T15:11:18;23.83;;;10.00;;